createdAt,value
2022-11-29T00:01:43.752Z,100726.81
2022-11-29T00:04:11.356Z,100732.66
2022-11-29T00:06:38.400Z,100732.34
2022-11-29T00:09:11.468Z,100730.56
2022-11-29T00:11:57.770Z,100736.06
2022-11-29T00:14:26.630Z,100724.28
2022-11-29T00:16:56.372Z,100729.00
2022-11-29T00:19:23.008Z,100724.84
2022-11-29T00:21:49.588Z,100730.75
2022-11-29T00:24:16.342Z,100730.88
2022-11-29T00:26:42.972Z,100734.59
2022-11-29T00:29:12.388Z,100738.44
2022-11-29T00:31:39.551Z,100734.06
2022-11-29T00:34:09.127Z,100734.31
2022-11-29T00:36:35.862Z,100731.63
2022-11-29T00:39:03.924Z,100735.72
2022-11-29T00:41:31.019Z,100739.75
2022-11-29T00:43:57.571Z,100741.50
2022-11-29T00:46:25.298Z,100739.22
2022-11-29T00:48:51.965Z,100739.56
2022-11-29T00:51:18.505Z,100742.22
2022-11-29T00:53:45.247Z,100731.63
2022-11-29T00:56:11.906Z,100734.94
2022-11-29T00:58:38.431Z,100729.25
2022-11-29T01:01:05.498Z,100723.97
2022-11-29T01:03:32.424Z,100724.19
2022-11-29T01:06:08.028Z,100722.00
2022-11-29T01:08:34.964Z,100720.75
2022-11-29T01:11:27.917Z,100722.31
2022-11-29T01:13:57.715Z,100716.25
2022-11-29T01:16:24.766Z,100720.44
2022-11-29T01:32:36.153Z,100713.75
2022-11-29T19:26:30.155Z,100834.44
2022-11-29T19:28:57.397Z,100831.81
2022-11-29T19:31:25.247Z,100832.81
2022-11-29T19:33:52.815Z,100825.50
2022-11-29T19:36:30.806Z,100820.50
2022-11-29T19:39:00.626Z,100834.59
2022-11-29T19:41:31.366Z,100826.00
2022-11-29T19:44:00.611Z,100827.53
2022-11-29T19:46:30.036Z,100832.81
2022-11-29T19:48:57.944Z,100829.06
2022-11-29T19:51:26.101Z,100826.16
2022-11-29T19:53:57.835Z,100834.88
2022-11-29T19:56:24.800Z,100832.34
2022-11-29T19:58:51.925Z,100835.84
2022-11-29T20:01:36.093Z,100836.75
2022-11-29T20:04:06.303Z,100835.03
2022-11-29T20:06:33.191Z,100835.91
2022-11-29T20:08:59.979Z,100825.81
2022-11-29T20:11:27.010Z,100833.38
2022-11-29T20:13:57.749Z,100832.50
2022-11-29T20:16:25.281Z,100824.78
2022-11-29T20:18:53.119Z,100836.66
2022-11-29T20:21:25.910Z,100834.25
2022-11-29T20:24:19.490Z,100838.88
2022-11-29T20:26:47.753Z,100842.81
2022-11-29T20:29:15.551Z,100843.19
2022-11-29T20:31:49.522Z,100840.00
2022-11-29T20:34:17.168Z,100841.72
2022-11-29T20:36:59.751Z,100848.34
2022-11-29T20:39:30.810Z,100852.78
2022-11-29T20:42:34.159Z,100845.97
2022-11-29T20:45:04.115Z,100851.78
2022-11-29T20:47:44.987Z,100843.47
2022-11-29T20:50:24.086Z,100843.97
2022-11-29T20:53:05.320Z,100844.25
2022-11-29T20:55:32.147Z,100845.22
2022-11-29T20:57:58.693Z,100837.16
2022-11-29T21:00:25.296Z,100839.97
2022-11-29T21:02:51.888Z,100842.47
2022-11-29T21:05:18.401Z,100842.69
2022-11-29T21:07:45.829Z,100840.94
2022-11-29T21:10:14.740Z,100853.28
2022-11-29T21:12:42.687Z,100843.22
2022-11-29T21:15:11.232Z,100844.75
2022-11-29T21:17:38.123Z,100845.00
2022-11-29T21:20:05.544Z,100837.19
2022-11-29T21:22:52.737Z,100843.38
2022-11-29T21:25:43.842Z,100837.97
2022-11-29T21:28:13.200Z,100843.00
2022-11-29T21:30:40.768Z,100848.56
2022-11-29T21:33:08.196Z,100846.25
2022-11-29T21:35:36.571Z,100836.69
2022-11-29T21:38:03.771Z,100832.41
2022-11-29T21:40:30.303Z,100841.09
2022-11-29T21:42:56.877Z,100837.03
2022-11-29T21:45:23.407Z,100839.34
2022-11-29T21:47:50.034Z,100837.94
2022-11-29T21:50:16.687Z,100833.69
2022-11-29T21:52:44.390Z,100829.16
2022-11-29T21:55:11.187Z,100832.91
2022-11-29T21:57:38.772Z,100838.31
2022-11-29T22:00:07.451Z,100840.59
2022-11-29T22:02:34.109Z,100836.44
2022-11-29T22:05:00.765Z,100842.75
2022-11-29T22:07:27.354Z,100837.97
2022-11-29T22:09:53.937Z,100842.38
2022-11-29T22:12:33.906Z,100846.75
2022-11-29T22:15:01.382Z,100843.72
2022-11-29T22:17:27.967Z,100843.72
2022-11-29T22:19:54.662Z,100844.84
2022-11-29T22:22:21.497Z,100844.38
2022-11-29T22:24:48.322Z,100834.94
2022-11-29T22:27:17.682Z,100845.00
2022-11-29T22:29:44.536Z,100854.59
2022-11-29T22:32:11.061Z,100849.19
2022-11-29T22:34:37.620Z,100847.63
2022-11-29T22:37:04.138Z,100849.53
2022-11-29T22:39:30.796Z,100848.56
2022-11-29T22:41:57.340Z,100843.63
2022-11-29T22:44:24.312Z,100844.25
2022-11-29T22:46:51.040Z,100852.06
2022-11-29T22:49:17.612Z,100839.47
2022-11-29T22:51:44.169Z,100837.19
2022-11-29T22:54:11.889Z,100842.38
2022-11-29T22:56:40.618Z,100842.13
2022-11-29T22:59:08.052Z,100844.75
2022-11-29T23:01:37.966Z,100840.22
2022-11-29T23:04:07.300Z,100833.56
2022-11-29T23:06:36.565Z,100839.25
2022-11-29T23:09:06.815Z,100838.22
2022-11-29T23:11:33.375Z,100834.19
2022-11-29T23:13:59.931Z,100823.84
2022-11-29T23:16:28.826Z,100833.53
2022-11-29T23:18:58.206Z,100826.63
2022-11-29T23:21:34.935Z,100830.91
2022-11-29T23:24:01.597Z,100830.19
2022-11-29T23:26:36.345Z,100824.13
2022-11-29T23:29:04.727Z,100832.19
2022-11-29T23:31:31.773Z,100832.56
2022-11-29T23:33:58.356Z,100828.28
2022-11-29T23:36:25.300Z,100828.38
2022-11-29T23:38:51.930Z,100827.16
2022-11-29T23:41:18.449Z,100829.16
2022-11-29T23:43:45.203Z,100824.13
2022-11-29T23:46:23.456Z,100819.69
2022-11-29T23:48:50.627Z,100817.06
2022-11-29T23:51:18.543Z,100820.72
2022-11-29T23:53:46.619Z,100826.38
2022-11-29T23:56:15.647Z,100824.63
2022-11-29T23:58:43.316Z,100829.41
